INDIA METEOROLOGICAL DEPARTMENT, R.M.C. NEW DELHI
Dated:24 - 1 - 2017
METARS OF ALTERNATE AIRPORTS
Delhi      
VIDP 241700Z 00000KT 0800 R28/P2000 R29/P2000 MIFG FEW100 17/13 Q1019 BECMG 0600 MIFG=
Lucknow    
VILK 241630Z VRB02KT 1500 R27/2000 BR NSC 15/13 Q1018=
Jaipur     
VIJP 241700Z 08007KT 2500 HZ SCT100 21/14 Q1019 NOSIG=
Ahmedabad  
VAAH 241630Z 00000KT 4000 FU NSC 24/14 Q1015 NOSIG=
Udaipur    
VAUD 241530Z 36002KT 4000 HZ NSC 20/13 Q1018 NOSIG=
Mumbai     
VABB 241700Z 06003KT 2200 FU NSC 28/14 Q1015 NOSIG=